LFBU/ANG METAR and TAF weather

Enter ICAO airport designator
Station Type Date Time Source
LFBU METAR 2020/01/23 18:30 UTC NOAA

LFBU 231830Z AUTO 02008KT 9000 ///TCU 07/05 Q1021 NOSIG


Station Type Date Time Source
LFBU Decoded METAR 2020/01/23 18:30 UTC NOAA

Station name not available
Jan 23, 2020 - 01:30 PM EST / 2020.01.23 1830 UTC
Wind: from the NNE (020 degrees) at 9 MPH (8 KT):0
Visibility: 5 mile(s):0
Weather: Towering cumulus clouds observed
Temperature: 44 F (7 C)
Dew Point: 41 F (5 C)
Relative Humidity: 87%
Pressure (altimeter): 30.15 in. Hg (1021 hPa)
ob: LFBU 231830Z AUTO 02008KT 9000 ///TCU 07/05 Q1021 NOSIG
cycle: 18

Station Type Date Time Source
LFBU TAF 2020/01/23 18:00 UTC NOAA

TAF LFBU 231700Z 2318/2418 04010KT CAVOK PROB40
TEMPO 2318/2321 6000 -RA BKN050TCU
BECMG 2400/2402 14010KT BKN012
TEMPO 2403/2409 4000 BR BKN005
BECMG 2409/2412 CAVOK

Example: see airport list